sensor_id;sensor_type;location;lat;lon;timestamp;P1;durP1;ratioP1;P2;durP2;ratioP2
76117;SDS011;64851;50.232;20.364;2024-02-14T00:00:56;30.60;;;11.10;;
76117;SDS011;64851;50.232;20.364;2024-02-14T00:03:38;12.20;;;6.00;;
76117;SDS011;64851;50.232;20.364;2024-02-14T00:06:36;28.70;;;8.80;;
76117;SDS011;64851;50.232;20.364;2024-02-14T00:09:31;34.20;;;11.40;;
76117;SDS011;64851;50.232;20.364;2024-02-14T00:12:11;23.00;;;8.60;;
76117;SDS011;64851;50.232;20.364;2024-02-14T00:15:07;23.10;;;9.50;;
76117;SDS011;64851;50.232;20.364;2024-02-14T00:17:42;22.60;;;9.40;;
76117;SDS011;64851;50.232;20.364;2024-02-14T00:20:38;19.00;;;8.20;;
76117;SDS011;64851;50.232;20.364;2024-02-14T00:23:13;16.50;;;6.50;;
76117;SDS011;64851;50.232;20.364;2024-02-14T00:26:08;14.80;;;5.80;;
76117;SDS011;64851;50.232;20.364;2024-02-14T00:28:43;13.60;;;5.50;;
76117;SDS011;64851;50.232;20.364;2024-02-14T00:31:38;12.30;;;5.20;;
76117;SDS011;64851;50.232;20.364;2024-02-14T00:34:33;13.80;;;4.60;;
76117;SDS011;64851;50.232;20.364;2024-02-14T00:37:09;12.30;;;4.50;;
76117;SDS011;64851;50.232;20.364;2024-02-14T00:39:57;12.40;;;5.20;;
76117;SDS011;64851;50.232;20.364;2024-02-14T00:42:39;8.80;;;4.00;;
76117;SDS011;64851;50.232;20.364;2024-02-14T00:45:20;13.50;;;4.70;;
76117;SDS011;64851;50.232;20.364;2024-02-14T00:48:01;12.40;;;5.00;;
76117;SDS011;64851;50.232;20.364;2024-02-14T00:50:43;10.80;;;4.50;;
76117;SDS011;64851;50.232;20.364;2024-02-14T00:53:23;12.70;;;5.20;;
76117;SDS011;64851;50.232;20.364;2024-02-14T00:56:18;9.30;;;5.10;;
76117;SDS011;64851;50.232;20.364;2024-02-14T00:58:53;13.10;;;5.20;;
76117;SDS011;64851;50.232;20.364;2024-02-14T01:01:41;14.10;;;5.70;;
76117;SDS011;64851;50.232;20.364;2024-02-14T01:04:23;10.80;;;4.90;;
76117;SDS011;64851;50.232;20.364;2024-02-14T01:07:05;12.30;;;5.40;;
76117;SDS011;64851;50.232;20.364;2024-02-14T01:09:46;13.90;;;5.40;;
76117;SDS011;64851;50.232;20.364;2024-02-14T01:12:34;11.20;;;5.10;;
76117;SDS011;64851;50.232;20.364;2024-02-14T01:15:15;11.80;;;4.50;;
76117;SDS011;64851;50.232;20.364;2024-02-14T01:18:03;11.00;;;4.30;;
76117;SDS011;64851;50.232;20.364;2024-02-14T01:20:38;10.80;;;4.30;;
76117;SDS011;64851;50.232;20.364;2024-02-14T01:23:25;7.90;;;4.30;;
76117;SDS011;64851;50.232;20.364;2024-02-14T01:26:01;12.40;;;4.90;;
76117;SDS011;64851;50.232;20.364;2024-02-14T01:28:48;8.60;;;4.10;;
76117;SDS011;64851;50.232;20.364;2024-02-14T01:31:30;9.10;;;3.90;;
76117;SDS011;64851;50.232;20.364;2024-02-14T01:34:11;8.80;;;3.70;;
76117;SDS011;64851;50.232;20.364;2024-02-14T01:36:53;9.00;;;3.80;;
76117;SDS011;64851;50.232;20.364;2024-02-14T01:39:33;11.20;;;4.20;;
76117;SDS011;64851;50.232;20.364;2024-02-14T01:42:15;9.40;;;3.40;;
76117;SDS011;64851;50.232;20.364;2024-02-14T01:44:56;8.40;;;3.70;;
76117;SDS011;64851;50.232;20.364;2024-02-14T01:47:38;13.00;;;3.50;;
76117;SDS011;64851;50.232;20.364;2024-02-14T01:50:19;11.30;;;4.20;;
76117;SDS011;64851;50.232;20.364;2024-02-14T01:53:09;9.40;;;3.40;;
76117;SDS011;64851;50.232;20.364;2024-02-14T01:55:49;9.90;;;3.90;;
76117;SDS011;64851;50.232;20.364;2024-02-14T01:58:31;9.30;;;3.40;;
76117;SDS011;64851;50.232;20.364;2024-02-14T02:01:13;9.50;;;4.10;;
76117;SDS011;64851;50.232;20.364;2024-02-14T02:03:58;8.90;;;3.40;;
76117;SDS011;64851;50.232;20.364;2024-02-14T02:06:39;8.50;;;3.40;;
76117;SDS011;64851;50.232;20.364;2024-02-14T02:09:24;9.10;;;4.10;;
76117;SDS011;64851;50.232;20.364;2024-02-14T02:12:11;8.50;;;3.60;;
76117;SDS011;64851;50.232;20.364;2024-02-14T02:14:53;7.00;;;3.20;;
76117;SDS011;64851;50.232;20.364;2024-02-14T02:17:36;12.70;;;5.20;;
76117;SDS011;64851;50.232;20.364;2024-02-14T02:20:17;9.20;;;3.80;;
76117;SDS011;64851;50.232;20.364;2024-02-14T02:23:03;7.80;;;4.00;;
76117;SDS011;64851;50.232;20.364;2024-02-14T02:25:44;6.40;;;3.10;;
76117;SDS011;64851;50.232;20.364;2024-02-14T02:28:31;8.80;;;3.30;;
76117;SDS011;64851;50.232;20.364;2024-02-14T02:31:07;5.40;;;2.90;;
76117;SDS011;64851;50.232;20.364;2024-02-14T02:33:54;7.40;;;3.00;;
76117;SDS011;64851;50.232;20.364;2024-02-14T02:36:36;7.00;;;3.10;;
76117;SDS011;64851;50.232;20.364;2024-02-14T02:39:19;8.60;;;2.90;;
76117;SDS011;64851;50.232;20.364;2024-02-14T02:42:01;8.80;;;3.00;;
76117;SDS011;64851;50.232;20.364;2024-02-14T02:44:51;7.60;;;3.10;;
76117;SDS011;64851;50.232;20.364;2024-02-14T02:47:27;8.60;;;3.00;;
76117;SDS011;64851;50.232;20.364;2024-02-14T02:50:15;8.60;;;3.00;;
76117;SDS011;64851;50.232;20.364;2024-02-14T02:52:50;8.30;;;3.20;;
76117;SDS011;64851;50.232;20.364;2024-02-14T02:55:37;10.90;;;3.80;;
76117;SDS011;64851;50.232;20.364;2024-02-14T02:58:13;8.00;;;3.40;;
76117;SDS011;64851;50.232;20.364;2024-02-14T03:01:01;10.80;;;3.30;;
76117;SDS011;64851;50.232;20.364;2024-02-14T03:03:39;7.50;;;3.20;;
76117;SDS011;64851;50.232;20.364;2024-02-14T03:06:29;7.60;;;3.10;;
76117;SDS011;64851;50.232;20.364;2024-02-14T03:09:11;8.90;;;3.40;;
76117;SDS011;64851;50.232;20.364;2024-02-14T03:11:52;6.40;;;2.80;;
76117;SDS011;64851;50.232;20.364;2024-02-14T03:14:35;10.70;;;4.20;;
76117;SDS011;64851;50.232;20.364;2024-02-14T03:17:24;7.50;;;3.20;;
76117;SDS011;64851;50.232;20.364;2024-02-14T03:20:06;7.00;;;3.20;;
76117;SDS011;64851;50.232;20.364;2024-02-14T03:22:51;6.00;;;2.60;;
76117;SDS011;64851;50.232;20.364;2024-02-14T03:25:35;8.60;;;3.30;;
76117;SDS011;64851;50.232;20.364;2024-02-14T03:28:22;8.10;;;3.40;;
76117;SDS011;64851;50.232;20.364;2024-02-14T03:31:04;6.40;;;3.00;;
76117;SDS011;64851;50.232;20.364;2024-02-14T03:33:54;8.40;;;3.30;;
76117;SDS011;64851;50.232;20.364;2024-02-14T03:36:30;8.20;;;3.70;;
76117;SDS011;64851;50.232;20.364;2024-02-14T03:39:18;7.80;;;3.30;;
76117;SDS011;64851;50.232;20.364;2024-02-14T03:41:54;6.80;;;3.00;;
76117;SDS011;64851;50.232;20.364;2024-02-14T03:44:45;10.10;;;3.40;;
76117;SDS011;64851;50.232;20.364;2024-02-14T03:47:20;9.50;;;3.90;;
76117;SDS011;64851;50.232;20.364;2024-02-14T03:50:08;8.50;;;3.30;;
76117;SDS011;64851;50.232;20.364;2024-02-14T03:52:43;8.20;;;3.60;;
76117;SDS011;64851;50.232;20.364;2024-02-14T03:55:31;8.10;;;3.40;;
76117;SDS011;64851;50.232;20.364;2024-02-14T03:58:06;7.20;;;3.50;;
76117;SDS011;64851;50.232;20.364;2024-02-14T04:01:03;8.80;;;3.20;;
76117;SDS011;64851;50.232;20.364;2024-02-14T04:03:38;7.00;;;3.10;;
76117;SDS011;64851;50.232;20.364;2024-02-14T04:06:33;8.80;;;4.30;;
76117;SDS011;64851;50.232;20.364;2024-02-14T04:09:08;9.70;;;3.80;;
76117;SDS011;64851;50.232;20.364;2024-02-14T04:12:04;7.70;;;3.90;;
76117;SDS011;64851;50.232;20.364;2024-02-14T04:14:58;9.60;;;3.80;;
76117;SDS011;64851;50.232;20.364;2024-02-14T04:17:34;8.10;;;3.50;;
76117;SDS011;64851;50.232;20.364;2024-02-14T04:20:29;8.00;;;3.80;;
76117;SDS011;64851;50.232;20.364;2024-02-14T04:23:23;9.80;;;3.50;;
76117;SDS011;64851;50.232;20.364;2024-02-14T04:26:00;8.90;;;4.20;;
76117;SDS011;64851;50.232;20.364;2024-02-14T04:28:48;7.00;;;3.60;;
76117;SDS011;64851;50.232;20.364;2024-02-14T04:31:30;7.00;;;3.40;;
76117;SDS011;64851;50.232;20.364;2024-02-14T04:34:11;8.20;;;3.80;;
76117;SDS011;64851;50.232;20.364;2024-02-14T04:36:55;9.80;;;3.60;;
76117;SDS011;64851;50.232;20.364;2024-02-14T04:39:44;7.30;;;3.40;;
76117;SDS011;64851;50.232;20.364;2024-02-14T04:42:20;10.20;;;4.00;;
76117;SDS011;64851;50.232;20.364;2024-02-14T04:45:07;8.30;;;3.40;;
76117;SDS011;64851;50.232;20.364;2024-02-14T04:47:49;7.50;;;3.20;;
76117;SDS011;64851;50.232;20.364;2024-02-14T04:50:30;9.30;;;4.90;;
76117;SDS011;64851;50.232;20.364;2024-02-14T04:53:12;8.20;;;4.30;;
76117;SDS011;64851;50.232;20.364;2024-02-14T04:55:53;8.90;;;4.00;;
76117;SDS011;64851;50.232;20.364;2024-02-14T04:58:35;11.20;;;3.80;;
76117;SDS011;64851;50.232;20.364;2024-02-14T05:01:22;7.90;;;4.50;;
76117;SDS011;64851;50.232;20.364;2024-02-14T05:03:58;10.70;;;4.10;;
76117;SDS011;64851;50.232;20.364;2024-02-14T05:06:45;9.70;;;4.30;;
76117;SDS011;64851;50.232;20.364;2024-02-14T05:09:21;11.70;;;5.50;;
76117;SDS011;64851;50.232;20.364;2024-02-14T05:12:09;10.60;;;4.90;;
76117;SDS011;64851;50.232;20.364;2024-02-14T05:14:51;9.60;;;4.70;;
76117;SDS011;64851;50.232;20.364;2024-02-14T05:17:41;11.80;;;5.10;;
76117;SDS011;64851;50.232;20.364;2024-02-14T05:20:24;9.50;;;4.90;;
76117;SDS011;64851;50.232;20.364;2024-02-14T05:23:05;9.60;;;4.60;;
76117;SDS011;64851;50.232;20.364;2024-02-14T05:25:47;10.10;;;4.60;;
76117;SDS011;64851;50.232;20.364;2024-02-14T05:28:34;10.80;;;4.80;;
76117;SDS011;64851;50.232;20.364;2024-02-14T05:31:09;13.30;;;5.20;;
76117;SDS011;64851;50.232;20.364;2024-02-14T05:33:56;8.70;;;4.50;;
76117;SDS011;64851;50.232;20.364;2024-02-14T05:36:38;8.80;;;4.20;;
76117;SDS011;64851;50.232;20.364;2024-02-14T05:39:26;11.30;;;4.60;;
76117;SDS011;64851;50.232;20.364;2024-02-14T05:42:08;9.40;;;4.30;;
76117;SDS011;64851;50.232;20.364;2024-02-14T05:44:50;13.40;;;4.60;;
76117;SDS011;64851;50.232;20.364;2024-02-14T05:47:33;14.50;;;4.20;;
76117;SDS011;64851;50.232;20.364;2024-02-14T05:50:14;12.20;;;4.60;;
76117;SDS011;64851;50.232;20.364;2024-02-14T05:52:56;9.50;;;4.20;;
76117;SDS011;64851;50.232;20.364;2024-02-14T05:55:38;10.90;;;5.10;;
76117;SDS011;64851;50.232;20.364;2024-02-14T05:58:19;12.90;;;5.10;;
76117;SDS011;64851;50.232;20.364;2024-02-14T06:01:14;11.40;;;4.60;;
76117;SDS011;64851;50.232;20.364;2024-02-14T06:04:09;10.60;;;5.00;;
76117;SDS011;64851;50.232;20.364;2024-02-14T06:06:44;11.90;;;4.60;;
76117;SDS011;64851;50.232;20.364;2024-02-14T06:09:32;14.00;;;5.20;;
76117;SDS011;64851;50.232;20.364;2024-02-14T06:12:20;14.40;;;6.10;;
76117;SDS011;64851;50.232;20.364;2024-02-14T06:15:16;12.10;;;5.70;;
76117;SDS011;64851;50.232;20.364;2024-02-14T06:17:51;13.70;;;5.60;;
76117;SDS011;64851;50.232;20.364;2024-02-14T06:20:46;12.50;;;5.50;;
76117;SDS011;64851;50.232;20.364;2024-02-14T06:23:41;9.60;;;5.10;;
76117;SDS011;64851;50.232;20.364;2024-02-14T06:26:16;13.90;;;6.20;;
76117;SDS011;64851;50.232;20.364;2024-02-14T06:29:04;13.50;;;6.20;;
76117;SDS011;64851;50.232;20.364;2024-02-14T06:31:39;15.00;;;6.10;;
76117;SDS011;64851;50.232;20.364;2024-02-14T06:34:34;15.30;;;6.30;;
76117;SDS011;64851;50.232;20.364;2024-02-14T06:37:29;13.30;;;6.00;;
76117;SDS011;64851;50.232;20.364;2024-02-14T06:40:19;14.40;;;5.90;;
76117;SDS011;64851;50.232;20.364;2024-02-14T06:43:08;17.20;;;6.70;;
76117;SDS011;64851;50.232;20.364;2024-02-14T06:45:43;7.70;;;3.70;;
76117;SDS011;64851;50.232;20.364;2024-02-14T06:48:33;14.50;;;6.40;;
76117;SDS011;64851;50.232;20.364;2024-02-14T06:51:12;14.40;;;7.10;;
76117;SDS011;64851;50.232;20.364;2024-02-14T06:54:00;16.20;;;7.30;;
76117;SDS011;64851;50.232;20.364;2024-02-14T06:56:36;18.40;;;7.10;;
76117;SDS011;64851;50.232;20.364;2024-02-14T06:59:23;15.30;;;7.60;;
76117;SDS011;64851;50.232;20.364;2024-02-14T07:01:58;15.60;;;7.00;;
76117;SDS011;64851;50.232;20.364;2024-02-14T07:04:53;14.80;;;6.90;;
76117;SDS011;64851;50.232;20.364;2024-02-14T07:07:49;14.90;;;7.50;;
76117;SDS011;64851;50.232;20.364;2024-02-14T07:10:24;15.70;;;7.70;;
76117;SDS011;64851;50.232;20.364;2024-02-14T07:13:13;16.70;;;7.40;;
76117;SDS011;64851;50.232;20.364;2024-02-14T07:15:48;13.10;;;6.30;;
76117;SDS011;64851;50.232;20.364;2024-02-14T07:18:36;20.00;;;8.40;;
76117;SDS011;64851;50.232;20.364;2024-02-14T07:21:11;17.00;;;7.60;;
76117;SDS011;64851;50.232;20.364;2024-02-14T07:23:59;16.50;;;7.10;;
76117;SDS011;64851;50.232;20.364;2024-02-14T07:26:34;16.80;;;8.40;;
76117;SDS011;64851;50.232;20.364;2024-02-14T07:29:25;15.90;;;7.10;;
76117;SDS011;64851;50.232;20.364;2024-02-14T07:32:02;15.80;;;7.50;;
76117;SDS011;64851;50.232;20.364;2024-02-14T07:34:49;16.00;;;7.90;;
76117;SDS011;64851;50.232;20.364;2024-02-14T07:37:24;14.80;;;7.60;;
76117;SDS011;64851;50.232;20.364;2024-02-14T07:40:20;18.70;;;7.60;;
76117;SDS011;64851;50.232;20.364;2024-02-14T07:42:55;16.80;;;7.80;;
76117;SDS011;64851;50.232;20.364;2024-02-14T07:45:43;13.60;;;7.20;;
76117;SDS011;64851;50.232;20.364;2024-02-14T07:48:18;19.60;;;7.50;;
76117;SDS011;64851;50.232;20.364;2024-02-14T07:51:07;16.70;;;7.20;;
76117;SDS011;64851;50.232;20.364;2024-02-14T07:53:42;15.60;;;7.90;;
76117;SDS011;64851;50.232;20.364;2024-02-14T07:56:31;15.70;;;7.10;;
76117;SDS011;64851;50.232;20.364;2024-02-14T07:59:06;16.90;;;7.70;;
76117;SDS011;64851;50.232;20.364;2024-02-14T08:02:01;15.70;;;7.30;;
76117;SDS011;64851;50.232;20.364;2024-02-14T08:04:43;19.00;;;8.30;;
76117;SDS011;64851;50.232;20.364;2024-02-14T08:07:33;18.10;;;7.70;;
76117;SDS011;64851;50.232;20.364;2024-02-14T08:10:08;17.30;;;8.70;;
76117;SDS011;64851;50.232;20.364;2024-02-14T08:12:57;19.80;;;8.70;;
76117;SDS011;64851;50.232;20.364;2024-02-14T08:15:40;17.90;;;8.80;;
76117;SDS011;64851;50.232;20.364;2024-02-14T08:18:28;18.60;;;8.60;;
76117;SDS011;64851;50.232;20.364;2024-02-14T08:21:04;14.70;;;7.30;;
76117;SDS011;64851;50.232;20.364;2024-02-14T08:23:54;13.90;;;7.00;;
76117;SDS011;64851;50.232;20.364;2024-02-14T08:26:29;18.30;;;10.50;;
76117;SDS011;64851;50.232;20.364;2024-02-14T08:29:17;34.60;;;16.10;;
76117;SDS011;64851;50.232;20.364;2024-02-14T08:31:53;76.00;;;31.70;;
76117;SDS011;64851;50.232;20.364;2024-02-14T08:34:44;61.30;;;26.90;;
76117;SDS011;64851;50.232;20.364;2024-02-14T08:37:26;18.00;;;8.30;;
76117;SDS011;64851;50.232;20.364;2024-02-14T08:40:07;15.90;;;7.60;;
76117;SDS011;64851;50.232;20.364;2024-02-14T08:42:50;13.10;;;6.40;;
76117;SDS011;64851;50.232;20.364;2024-02-14T08:45:37;9.70;;;5.40;;
76117;SDS011;64851;50.232;20.364;2024-02-14T08:48:12;12.10;;;5.90;;
76117;SDS011;64851;50.232;20.364;2024-02-14T08:51:00;14.70;;;6.80;;
76117;SDS011;64851;50.232;20.364;2024-02-14T08:53:35;13.50;;;6.20;;
76117;SDS011;64851;50.232;20.364;2024-02-14T08:56:25;12.70;;;6.10;;
76117;SDS011;64851;50.232;20.364;2024-02-14T08:59:00;10.30;;;5.60;;
76117;SDS011;64851;50.232;20.364;2024-02-14T09:01:48;12.20;;;5.60;;
76117;SDS011;64851;50.232;20.364;2024-02-14T09:04:23;12.40;;;5.80;;
76117;SDS011;64851;50.232;20.364;2024-02-14T09:07:11;10.40;;;5.10;;
76117;SDS011;64851;50.232;20.364;2024-02-14T09:09:47;11.80;;;6.00;;
76117;SDS011;64851;50.232;20.364;2024-02-14T09:12:36;10.40;;;5.20;;
76117;SDS011;64851;50.232;20.364;2024-02-14T09:15:11;9.40;;;5.70;;
76117;SDS011;64851;50.232;20.364;2024-02-14T09:17:59;13.30;;;6.40;;
76117;SDS011;64851;50.232;20.364;2024-02-14T09:20:35;10.30;;;5.50;;
76117;SDS011;64851;50.232;20.364;2024-02-14T09:23:27;11.40;;;5.50;;
76117;SDS011;64851;50.232;20.364;2024-02-14T09:26:03;11.80;;;5.50;;
76117;SDS011;64851;50.232;20.364;2024-02-14T09:28:58;7.50;;;2.90;;
76117;SDS011;64851;50.232;20.364;2024-02-14T09:31:53;7.60;;;3.10;;
76117;SDS011;64851;50.232;20.364;2024-02-14T09:34:28;9.40;;;4.00;;
76117;SDS011;64851;50.232;20.364;2024-02-14T09:37:16;5.00;;;2.30;;
76117;SDS011;64851;50.232;20.364;2024-02-14T09:39:51;3.90;;;1.80;;
76117;SDS011;64851;50.232;20.364;2024-02-14T09:42:51;5.10;;;2.00;;
76117;SDS011;64851;50.232;20.364;2024-02-14T09:45:28;4.00;;;1.80;;
76117;SDS011;64851;50.232;20.364;2024-02-14T09:48:16;3.90;;;1.80;;
76117;SDS011;64851;50.232;20.364;2024-02-14T09:50:52;11.00;;;8.20;;
76117;SDS011;64851;50.232;20.364;2024-02-14T09:53:41;4.40;;;2.20;;
76117;SDS011;64851;50.232;20.364;2024-02-14T09:56:17;8.50;;;4.20;;
76117;SDS011;64851;50.232;20.364;2024-02-14T09:59:05;10.60;;;4.80;;
76117;SDS011;64851;50.232;20.364;2024-02-14T10:01:40;9.00;;;5.50;;
76117;SDS011;64851;50.232;20.364;2024-02-14T10:04:39;8.10;;;3.90;;
76117;SDS011;64851;50.232;20.364;2024-02-14T10:07:21;9.90;;;5.00;;
76117;SDS011;64851;50.232;20.364;2024-02-14T10:10:05;10.10;;;4.70;;
76117;SDS011;64851;50.232;20.364;2024-02-14T10:12:55;15.20;;;7.90;;
76117;SDS011;64851;50.232;20.364;2024-02-14T10:15:49;8.30;;;4.40;;
76117;SDS011;64851;50.232;20.364;2024-02-14T10:18:24;6.10;;;3.00;;
76117;SDS011;64851;50.232;20.364;2024-02-14T10:21:15;10.10;;;4.00;;
76117;SDS011;64851;50.232;20.364;2024-02-14T10:23:54;11.00;;;3.70;;
76117;SDS011;64851;50.232;20.364;2024-02-14T10:26:41;11.90;;;4.80;;
76117;SDS011;64851;50.232;20.364;2024-02-14T10:29:17;7.70;;;4.10;;
76117;SDS011;64851;50.232;20.364;2024-02-14T10:32:05;7.30;;;3.30;;
76117;SDS011;64851;50.232;20.364;2024-02-14T10:34:41;7.80;;;4.10;;
76117;SDS011;64851;50.232;20.364;2024-02-14T10:37:31;7.10;;;3.30;;
76117;SDS011;64851;50.232;20.364;2024-02-14T10:40:13;6.40;;;3.20;;
76117;SDS011;64851;50.232;20.364;2024-02-14T10:42:55;6.30;;;3.10;;
76117;SDS011;64851;50.232;20.364;2024-02-14T10:45:39;9.20;;;3.70;;
76117;SDS011;64851;50.232;20.364;2024-02-14T10:48:22;7.30;;;3.10;;
76117;SDS011;64851;50.232;20.364;2024-02-14T10:53:47;7.10;;;4.10;;
76117;SDS011;64851;50.232;20.364;2024-02-14T10:56:30;6.90;;;3.60;;
76117;SDS011;64851;50.232;20.364;2024-02-14T10:59:13;7.00;;;3.30;;
76117;SDS011;64851;50.232;20.364;2024-02-14T11:01:57;9.20;;;5.90;;
76117;SDS011;64851;50.232;20.364;2024-02-14T11:04:38;11.20;;;5.60;;
76117;SDS011;64851;50.232;20.364;2024-02-14T11:07:20;7.40;;;4.00;;
76117;SDS011;64851;50.232;20.364;2024-02-14T11:10:08;6.80;;;3.20;;
76117;SDS011;64851;50.232;20.364;2024-02-14T11:12:43;8.90;;;3.70;;
76117;SDS011;64851;50.232;20.364;2024-02-14T11:15:34;7.30;;;3.60;;
76117;SDS011;64851;50.232;20.364;2024-02-14T11:18:24;6.60;;;3.30;;
76117;SDS011;64851;50.232;20.364;2024-02-14T11:21:17;9.00;;;4.30;;
76117;SDS011;64851;50.232;20.364;2024-02-14T11:23:55;7.60;;;3.70;;
76117;SDS011;64851;50.232;20.364;2024-02-14T11:27:01;6.60;;;2.90;;
76117;SDS011;64851;50.232;20.364;2024-02-14T11:29:52;6.90;;;3.10;;
76117;SDS011;64851;50.232;20.364;2024-02-14T11:32:47;7.30;;;3.10;;
76117;SDS011;64851;50.232;20.364;2024-02-14T11:35:44;5.50;;;2.30;;
76117;SDS011;64851;50.232;20.364;2024-02-14T11:38:21;5.00;;;2.20;;
76117;SDS011;64851;50.232;20.364;2024-02-14T11:41:10;5.70;;;1.90;;
76117;SDS011;64851;50.232;20.364;2024-02-14T11:43:51;4.00;;;1.80;;
76117;SDS011;64851;50.232;20.364;2024-02-14T11:46:39;5.40;;;2.20;;
76117;SDS011;64851;50.232;20.364;2024-02-14T11:49:15;4.60;;;2.00;;
76117;SDS011;64851;50.232;20.364;2024-02-14T11:52:13;6.10;;;1.90;;
76117;SDS011;64851;50.232;20.364;2024-02-14T11:55:08;4.40;;;2.10;;
76117;SDS011;64851;50.232;20.364;2024-02-14T11:57:43;5.70;;;2.20;;
76117;SDS011;64851;50.232;20.364;2024-02-14T12:00:39;4.30;;;1.90;;
76117;SDS011;64851;50.232;20.364;2024-02-14T12:03:18;5.20;;;2.50;;
76117;SDS011;64851;50.232;20.364;2024-02-14T12:06:09;4.30;;;1.70;;
76117;SDS011;64851;50.232;20.364;2024-02-14T12:08:45;3.90;;;1.90;;
76117;SDS011;64851;50.232;20.364;2024-02-14T12:11:41;1.60;;;0.60;;
76117;SDS011;64851;50.232;20.364;2024-02-14T12:14:36;4.50;;;2.30;;
76117;SDS011;64851;50.232;20.364;2024-02-14T12:17:11;4.60;;;2.40;;
76117;SDS011;64851;50.232;20.364;2024-02-14T12:20:09;3.70;;;1.60;;
76117;SDS011;64851;50.232;20.364;2024-02-14T12:23:07;4.60;;;1.90;;
76117;SDS011;64851;50.232;20.364;2024-02-14T12:25:42;7.00;;;2.40;;
76117;SDS011;64851;50.232;20.364;2024-02-14T12:28:31;5.00;;;2.40;;
76117;SDS011;64851;50.232;20.364;2024-02-14T12:31:06;5.40;;;2.70;;
76117;SDS011;64851;50.232;20.364;2024-02-14T12:33:58;7.60;;;2.80;;
76117;SDS011;64851;50.232;20.364;2024-02-14T12:36:37;4.80;;;2.60;;
76117;SDS011;64851;50.232;20.364;2024-02-14T12:39:27;4.60;;;2.30;;
76117;SDS011;64851;50.232;20.364;2024-02-14T12:42:05;11.30;;;5.00;;
76117;SDS011;64851;50.232;20.364;2024-02-14T12:45:00;13.10;;;6.90;;
76117;SDS011;64851;50.232;20.364;2024-02-14T12:47:56;8.60;;;4.90;;
76117;SDS011;64851;50.232;20.364;2024-02-14T12:50:31;6.60;;;2.90;;
76117;SDS011;64851;50.232;20.364;2024-02-14T12:53:19;5.40;;;2.30;;
76117;SDS011;64851;50.232;20.364;2024-02-14T12:55:55;5.70;;;2.00;;
76117;SDS011;64851;50.232;20.364;2024-02-14T12:58:52;5.10;;;1.70;;
76117;SDS011;64851;50.232;20.364;2024-02-14T13:01:47;4.30;;;2.00;;
76117;SDS011;64851;50.232;20.364;2024-02-14T13:04:23;5.20;;;1.90;;
76117;SDS011;64851;50.232;20.364;2024-02-14T13:07:12;6.80;;;2.00;;
76117;SDS011;64851;50.232;20.364;2024-02-14T13:09:47;6.00;;;2.10;;
76117;SDS011;64851;50.232;20.364;2024-02-14T13:12:42;5.50;;;1.90;;
76117;SDS011;64851;50.232;20.364;2024-02-14T13:15:19;3.80;;;1.70;;
76117;SDS011;64851;50.232;20.364;2024-02-14T13:18:07;3.90;;;1.80;;
76117;SDS011;64851;50.232;20.364;2024-02-14T13:20:42;4.60;;;1.80;;
76117;SDS011;64851;50.232;20.364;2024-02-14T13:23:37;6.60;;;2.40;;
76117;SDS011;64851;50.232;20.364;2024-02-14T13:26:14;3.70;;;1.60;;
76117;SDS011;64851;50.232;20.364;2024-02-14T13:29:04;3.60;;;1.80;;
76117;SDS011;64851;50.232;20.364;2024-02-14T13:31:59;5.20;;;1.90;;
76117;SDS011;64851;50.232;20.364;2024-02-14T13:34:48;3.50;;;2.00;;
76117;SDS011;64851;50.232;20.364;2024-02-14T13:37:25;4.00;;;1.90;;
76117;SDS011;64851;50.232;20.364;2024-02-14T13:40:13;5.10;;;2.40;;
76117;SDS011;64851;50.232;20.364;2024-02-14T13:42:48;4.70;;;1.60;;
76117;SDS011;64851;50.232;20.364;2024-02-14T13:45:40;5.10;;;2.10;;
76117;SDS011;64851;50.232;20.364;2024-02-14T13:48:25;5.40;;;2.00;;
76117;SDS011;64851;50.232;20.364;2024-02-14T13:51:13;6.50;;;2.40;;
76117;SDS011;64851;50.232;20.364;2024-02-14T13:53:55;3.50;;;1.80;;
76117;SDS011;64851;50.232;20.364;2024-02-14T13:56:36;5.20;;;2.00;;
76117;SDS011;64851;50.232;20.364;2024-02-14T13:59:18;4.80;;;2.10;;
76117;SDS011;64851;50.232;20.364;2024-02-14T14:02:06;5.40;;;2.00;;
76117;SDS011;64851;50.232;20.364;2024-02-14T14:04:42;5.10;;;1.80;;
76117;SDS011;64851;50.232;20.364;2024-02-14T14:07:30;5.10;;;2.10;;
76117;SDS011;64851;50.232;20.364;2024-02-14T14:10:16;5.50;;;2.40;;
76117;SDS011;64851;50.232;20.364;2024-02-14T14:13:05;4.10;;;1.70;;
76117;SDS011;64851;50.232;20.364;2024-02-14T14:16:01;10.70;;;3.80;;
76117;SDS011;64851;50.232;20.364;2024-02-14T14:18:42;16.50;;;9.20;;
76117;SDS011;64851;50.232;20.364;2024-02-14T14:21:36;18.20;;;9.90;;
76117;SDS011;64851;50.232;20.364;2024-02-14T14:24:12;9.60;;;5.20;;
76117;SDS011;64851;50.232;20.364;2024-02-14T14:27:08;11.20;;;5.60;;
76117;SDS011;64851;50.232;20.364;2024-02-14T14:29:54;28.60;;;13.50;;
76117;SDS011;64851;50.232;20.364;2024-02-14T14:32:35;41.20;;;18.60;;
76117;SDS011;64851;50.232;20.364;2024-02-14T14:35:18;20.50;;;9.70;;
76117;SDS011;64851;50.232;20.364;2024-02-14T14:37:59;17.10;;;8.50;;
76117;SDS011;64851;50.232;20.364;2024-02-14T14:40:41;26.40;;;11.00;;
76117;SDS011;64851;50.232;20.364;2024-02-14T14:43:21;14.80;;;8.00;;
76117;SDS011;64851;50.232;20.364;2024-02-14T14:46:03;56.30;;;23.40;;
76117;SDS011;64851;50.232;20.364;2024-02-14T14:48:45;22.40;;;10.70;;
76117;SDS011;64851;50.232;20.364;2024-02-14T14:51:28;26.10;;;13.00;;
76117;SDS011;64851;50.232;20.364;2024-02-14T14:54:16;14.90;;;7.40;;
76117;SDS011;64851;50.232;20.364;2024-02-14T14:56:55;37.00;;;16.70;;
76117;SDS011;64851;50.232;20.364;2024-02-14T14:59:54;14.80;;;8.30;;
76117;SDS011;64851;50.232;20.364;2024-02-14T15:02:49;41.50;;;16.10;;
76117;SDS011;64851;50.232;20.364;2024-02-14T15:05:28;87.50;;;34.10;;
76117;SDS011;64851;50.232;20.364;2024-02-14T15:08:22;109.20;;;40.50;;
76117;SDS011;64851;50.232;20.364;2024-02-14T15:11:17;31.80;;;14.10;;
76117;SDS011;64851;50.232;20.364;2024-02-14T15:13:54;44.10;;;16.50;;
76117;SDS011;64851;50.232;20.364;2024-02-14T15:16:42;104.90;;;36.80;;
76117;SDS011;64851;50.232;20.364;2024-02-14T15:19:17;25.70;;;11.50;;
76117;SDS011;64851;50.232;20.364;2024-02-14T15:22:05;38.50;;;16.30;;
76117;SDS011;64851;50.232;20.364;2024-02-14T15:24:40;97.10;;;36.90;;
76117;SDS011;64851;50.232;20.364;2024-02-14T15:27:29;51.90;;;21.80;;
76117;SDS011;64851;50.232;20.364;2024-02-14T15:30:07;43.90;;;16.70;;
76117;SDS011;64851;50.232;20.364;2024-02-14T15:33:19;97.80;;;38.10;;
76117;SDS011;64851;50.232;20.364;2024-02-14T15:36:14;141.30;;;62.40;;
76117;SDS011;64851;50.232;20.364;2024-02-14T15:38:56;39.70;;;19.50;;
76117;SDS011;64851;50.232;20.364;2024-02-14T15:41:47;69.40;;;36.40;;
76117;SDS011;64851;50.232;20.364;2024-02-14T15:44:29;39.80;;;19.70;;
76117;SDS011;64851;50.232;20.364;2024-02-14T15:47:16;80.80;;;31.90;;
76117;SDS011;64851;50.232;20.364;2024-02-14T15:49:58;117.70;;;44.80;;
76117;SDS011;64851;50.232;20.364;2024-02-14T15:52:47;122.70;;;47.00;;
76117;SDS011;64851;50.232;20.364;2024-02-14T15:55:22;383.70;;;212.30;;
76117;SDS011;64851;50.232;20.364;2024-02-14T15:58:10;161.10;;;71.00;;
76117;SDS011;64851;50.232;20.364;2024-02-14T16:00:45;108.60;;;54.80;;
76117;SDS011;64851;50.232;20.364;2024-02-14T16:03:33;64.70;;;32.20;;
76117;SDS011;64851;50.232;20.364;2024-02-14T16:06:08;38.40;;;24.50;;
76117;SDS011;64851;50.232;20.364;2024-02-14T16:09:02;18.80;;;12.20;;